createdAt,value
2018-10-18T00:01:38.145Z,25.83
2018-10-18T00:04:06.643Z,24.73
2018-10-18T00:06:35.145Z,25.20
2018-10-18T00:09:04.768Z,24.80
2018-10-18T00:11:33.377Z,22.00
2018-10-18T00:14:01.899Z,22.47
2018-10-18T00:16:30.481Z,21.00
2018-10-18T00:18:58.995Z,26.50
2018-10-18T00:21:27.480Z,25.50
2018-10-18T00:23:56.093Z,24.60
2018-10-18T00:26:24.673Z,27.60
2018-10-18T00:28:53.241Z,24.23
2018-10-18T00:31:21.776Z,26.60
2018-10-18T00:33:50.321Z,27.00
2018-10-18T00:36:18.865Z,25.80
2018-10-18T00:38:47.280Z,26.53
2018-10-18T00:41:15.806Z,25.20
2018-10-18T00:43:44.268Z,26.03
2018-10-18T00:46:12.730Z,21.53
2018-10-18T00:48:41.193Z,28.30
2018-10-18T00:51:09.602Z,24.07
2018-10-18T00:53:38.028Z,24.33
2018-10-18T00:56:06.513Z,28.80
2018-10-18T00:58:34.994Z,26.57
2018-10-18T01:01:03.566Z,29.00
2018-10-18T01:03:32.024Z,27.70
2018-10-18T01:06:00.619Z,29.43
2018-10-18T01:08:29.126Z,28.10
2018-10-18T01:10:57.594Z,26.67
2018-10-18T01:13:26.065Z,25.47
2018-10-18T01:15:54.565Z,25.67
2018-10-18T01:18:23.019Z,24.83
2018-10-18T01:20:51.478Z,26.80
2018-10-18T01:23:19.998Z,26.63
2018-10-18T01:28:13.597Z,27.50
2018-10-18T01:30:42.017Z,26.60
2018-10-18T01:33:10.389Z,26.17
2018-10-18T01:35:38.756Z,27.20
2018-10-18T01:38:07.202Z,27.70
2018-10-18T01:40:35.657Z,23.60
2018-10-18T01:43:04.112Z,24.97
2018-10-18T01:45:32.488Z,23.13
2018-10-18T01:48:00.891Z,24.17
2018-10-18T01:50:29.244Z,26.20
2018-10-18T01:52:57.583Z,24.87
2018-10-18T01:55:25.962Z,25.43
2018-10-18T01:57:54.358Z,27.00
2018-10-18T02:00:22.803Z,27.20
2018-10-18T02:02:51.176Z,25.67
2018-10-18T02:05:19.539Z,25.37
2018-10-18T02:07:47.936Z,25.77
2018-10-18T02:10:16.291Z,24.10
2018-10-18T02:12:44.674Z,26.10
2018-10-18T02:15:13.028Z,25.07
2018-10-18T02:17:41.548Z,24.43
2018-10-18T02:20:10.960Z,25.20
2018-10-18T02:22:39.736Z,25.87
2018-10-18T02:25:08.200Z,26.20
2018-10-18T02:27:36.597Z,25.47
2018-10-18T02:30:05.675Z,28.30
2018-10-18T02:32:34.003Z,27.53
2018-10-18T02:35:02.396Z,26.70
2018-10-18T02:37:30.786Z,27.57
2018-10-18T02:39:59.183Z,25.10
2018-10-18T02:42:27.592Z,25.80
2018-10-18T02:44:55.961Z,26.47
2018-10-18T02:47:24.341Z,27.27
2018-10-18T02:49:52.697Z,26.60
2018-10-18T02:52:21.069Z,26.77
2018-10-18T02:54:49.523Z,25.57
2018-10-18T02:57:17.876Z,31.47
2018-10-18T02:59:46.216Z,29.17
2018-10-18T03:02:14.576Z,25.90
2018-10-18T03:04:42.900Z,26.07
2018-10-18T03:07:11.237Z,23.63
2018-10-18T03:09:39.617Z,23.60
2018-10-18T03:12:07.986Z,26.70
2018-10-18T03:14:36.356Z,23.17
2018-10-18T03:17:04.892Z,23.63
2018-10-18T03:19:33.236Z,29.70
2018-10-18T03:22:01.612Z,33.77
2018-10-18T03:24:30.010Z,60.80
2018-10-18T03:26:58.447Z,39.43
2018-10-18T03:29:26.879Z,73.33
2018-10-18T03:31:55.413Z,114.60
2018-10-18T03:34:23.821Z,122.30
2018-10-18T03:36:52.272Z,126.23
2018-10-18T03:39:20.689Z,124.40
2018-10-18T03:41:49.107Z,129.93
2018-10-18T03:44:24.108Z,135.90
2018-10-18T03:46:52.529Z,137.60
2018-10-18T03:49:20.950Z,134.20
2018-10-18T03:51:49.316Z,136.40
2018-10-18T03:54:17.729Z,133.23
2018-10-18T03:56:46.281Z,132.70
2018-10-18T03:59:14.640Z,131.40
2018-10-18T04:01:43.092Z,129.83
2018-10-18T04:04:11.492Z,127.87
2018-10-18T04:06:39.889Z,123.63
2018-10-18T04:09:09.722Z,122.87
2018-10-18T04:11:38.296Z,125.70
2018-10-18T04:14:07.076Z,119.67
2018-10-18T04:16:35.509Z,111.47
2018-10-18T04:19:03.924Z,111.87
2018-10-18T04:21:32.305Z,105.83
2018-10-18T04:24:00.781Z,99.70
2018-10-18T04:26:29.134Z,103.53
2018-10-18T04:28:57.544Z,95.33
2018-10-18T04:31:26.161Z,96.87
2018-10-18T04:33:54.556Z,92.57
2018-10-18T04:36:22.980Z,90.70
2018-10-18T04:38:51.384Z,87.57
2018-10-18T04:41:19.812Z,84.30
2018-10-18T04:43:48.204Z,82.97
2018-10-18T04:46:16.612Z,78.97
2018-10-18T04:48:45.049Z,79.43
2018-10-18T04:51:13.324Z,78.80
2018-10-18T04:53:41.754Z,74.60
2018-10-18T04:56:10.240Z,76.23
2018-10-18T04:58:38.700Z,75.03
2018-10-18T05:01:07.236Z,76.97
2018-10-18T05:03:35.628Z,72.47
2018-10-18T05:06:05.177Z,73.27
2018-10-18T05:08:33.571Z,75.27
2018-10-18T05:11:02.265Z,78.57
2018-10-18T05:13:30.636Z,73.63
2018-10-18T05:15:59.014Z,71.87
2018-10-18T05:21:11.499Z,69.47
2018-10-18T05:23:40.132Z,69.10
2018-10-18T05:26:14.942Z,66.13
2018-10-18T05:28:43.407Z,68.13
2018-10-18T05:31:11.973Z,68.57
2018-10-18T05:33:40.394Z,66.83
2018-10-18T05:36:08.912Z,70.63
2018-10-18T05:38:37.408Z,71.33
2018-10-18T05:41:05.936Z,69.20
2018-10-18T05:43:34.455Z,64.93
2018-10-18T05:46:03.036Z,62.67
2018-10-18T05:48:31.517Z,65.20
2018-10-18T05:51:00.033Z,64.20
2018-10-18T05:53:28.690Z,67.70
2018-10-18T05:55:57.179Z,68.60
2018-10-18T05:58:25.753Z,67.37
2018-10-18T06:00:55.289Z,67.00
2018-10-18T06:03:23.835Z,61.70
2018-10-18T06:05:52.387Z,64.90
2018-10-18T06:08:21.031Z,61.37
2018-10-18T06:11:01.674Z,60.10
2018-10-18T06:13:31.127Z,60.53
2018-10-18T06:16:00.601Z,62.80
2018-10-18T06:18:29.129Z,59.83
2018-10-18T06:20:57.760Z,62.60
2018-10-18T06:23:26.281Z,60.23
2018-10-18T06:25:54.705Z,58.63
2018-10-18T06:28:23.149Z,55.93
2018-10-18T06:30:51.576Z,57.67
2018-10-18T06:33:20.037Z,58.47
2018-10-18T06:35:48.441Z,56.03
2018-10-18T06:38:16.868Z,59.70
2018-10-18T06:40:45.344Z,59.30
2018-10-18T06:43:14.844Z,55.30
2018-10-18T06:45:43.253Z,53.90
2018-10-18T06:48:11.709Z,54.70
2018-10-18T06:50:40.129Z,51.73
2018-10-18T06:53:08.636Z,52.80
2018-10-18T06:55:37.169Z,51.00
2018-10-18T06:58:05.744Z,53.97
2018-10-18T07:00:34.224Z,54.60
2018-10-18T07:03:02.666Z,53.60
2018-10-18T07:05:31.033Z,50.03
2018-10-18T07:07:59.552Z,52.30
2018-10-18T07:10:28.092Z,53.77
2018-10-18T07:12:56.664Z,53.30
2018-10-18T07:15:25.156Z,53.10
2018-10-18T07:17:53.757Z,49.97
2018-10-18T07:20:22.288Z,49.70
2018-10-18T07:22:57.412Z,50.17
2018-10-18T07:25:26.015Z,50.27
2018-10-18T07:27:54.346Z,48.90
2018-10-18T07:30:22.733Z,46.87
2018-10-18T07:32:51.202Z,46.43
2018-10-18T07:35:20.614Z,46.97
2018-10-18T07:37:48.998Z,45.10
2018-10-18T07:40:17.412Z,44.87
2018-10-18T07:42:45.797Z,44.90
2018-10-18T07:45:14.749Z,42.33
2018-10-18T07:47:43.805Z,41.80
2018-10-18T07:50:12.676Z,40.67
2018-10-18T07:52:41.112Z,42.10
2018-10-18T07:55:10.409Z,39.27
2018-10-18T07:57:38.890Z,40.10
2018-10-18T08:00:10.516Z,41.37
2018-10-18T08:02:38.955Z,41.40
2018-10-18T08:05:07.752Z,39.00
2018-10-18T08:07:36.220Z,38.57
2018-10-18T08:10:05.817Z,37.30
2018-10-18T08:12:34.220Z,40.80
2018-10-18T08:15:02.697Z,38.10
2018-10-18T08:17:31.125Z,37.60
2018-10-18T08:19:59.608Z,38.30
2018-10-18T08:22:28.108Z,36.00
2018-10-18T08:24:56.508Z,37.00
2018-10-18T08:27:25.065Z,36.70
2018-10-18T08:29:53.633Z,37.43
2018-10-18T08:32:23.164Z,33.20
2018-10-18T08:34:51.692Z,31.60
2018-10-18T08:37:20.225Z,31.13
2018-10-18T08:39:48.741Z,31.03
2018-10-18T08:42:17.227Z,31.43
2018-10-18T08:44:45.732Z,31.00
2018-10-18T08:47:14.288Z,30.70
2018-10-18T08:49:42.749Z,29.70
2018-10-18T08:52:11.256Z,30.53
2018-10-18T08:54:39.828Z,29.00
2018-10-18T08:57:08.333Z,26.90
2018-10-18T08:59:36.860Z,26.73
2018-10-18T09:02:05.547Z,25.80
2018-10-18T09:04:34.078Z,24.97
2018-10-18T09:07:02.607Z,24.90
2018-10-18T09:09:31.260Z,24.37
2018-10-18T09:11:59.807Z,23.60
2018-10-18T09:14:28.634Z,24.03
2018-10-18T09:16:58.130Z,23.80
2018-10-18T09:19:26.606Z,22.47
2018-10-18T09:21:56.072Z,22.83
2018-10-18T09:24:24.508Z,22.80
2018-10-18T09:26:52.981Z,26.20
2018-10-18T09:29:21.537Z,28.73
2018-10-18T09:31:50.014Z,29.10
2018-10-18T09:34:18.573Z,30.30
2018-10-18T09:36:47.070Z,29.73
2018-10-18T09:39:15.553Z,28.67
2018-10-18T09:41:44.088Z,29.80
2018-10-18T09:44:12.614Z,29.23
2018-10-18T09:46:41.094Z,29.70
2018-10-18T09:49:09.608Z,29.40
2018-10-18T09:51:38.004Z,32.13
2018-10-18T09:54:06.619Z,31.73
2018-10-18T09:56:35.148Z,31.93
2018-10-18T09:59:04.767Z,32.70
2018-10-18T10:01:38.564Z,32.23
2018-10-18T10:04:07.010Z,32.50
2018-10-18T10:06:35.419Z,34.10
2018-10-18T10:09:04.105Z,36.00
2018-10-18T10:11:32.569Z,36.47
2018-10-18T10:14:01.069Z,37.77
2018-10-18T10:16:29.518Z,38.13
2018-10-18T10:18:58.095Z,41.27
2018-10-18T10:21:26.564Z,38.63
2018-10-18T10:23:55.092Z,40.53
2018-10-18T10:26:23.679Z,39.43
2018-10-18T10:28:52.141Z,40.73
2018-10-18T10:31:20.621Z,41.37
2018-10-18T10:33:48.996Z,43.10
2018-10-18T10:36:17.468Z,43.20
2018-10-18T10:38:45.950Z,39.23
2018-10-18T10:41:14.448Z,42.17
2018-10-18T10:43:42.779Z,42.40
2018-10-18T10:46:11.297Z,40.17
2018-10-18T10:48:39.824Z,38.87
2018-10-18T10:51:09.302Z,39.20
2018-10-18T10:53:38.355Z,36.43
2018-10-18T10:56:08.161Z,36.20
2018-10-18T10:58:37.784Z,37.33
2018-10-18T11:01:15.689Z,36.23
2018-10-18T11:03:45.652Z,34.90
2018-10-18T11:06:15.439Z,36.40
2018-10-18T11:08:44.929Z,35.80
2018-10-18T11:11:15.281Z,35.87
2018-10-18T11:13:44.734Z,35.10
2018-10-18T11:16:14.046Z,33.00
2018-10-18T11:18:43.833Z,32.57
2018-10-18T11:21:17.650Z,34.00
2018-10-18T11:23:48.088Z,36.13
2018-10-18T11:28:54.737Z,37.20
2018-10-18T11:31:24.706Z,34.40
2018-10-18T11:33:58.874Z,34.70
2018-10-18T11:36:28.217Z,32.60
2018-10-18T11:38:57.572Z,33.77
2018-10-18T11:41:27.028Z,35.70
2018-10-18T11:43:56.438Z,32.67
2018-10-18T11:46:26.447Z,32.87
2018-10-18T11:48:55.974Z,32.30
2018-10-18T11:51:25.526Z,31.33
2018-10-18T11:53:55.062Z,33.00
2018-10-18T11:56:24.507Z,31.97
2018-10-18T11:58:53.945Z,32.00
2018-10-18T12:01:23.535Z,32.70
2018-10-18T12:03:59.329Z,31.30
2018-10-18T12:06:28.832Z,30.43
2018-10-18T12:08:58.169Z,29.93
2018-10-18T12:11:26.791Z,31.80
2018-10-18T12:13:55.251Z,27.60
2018-10-18T12:16:23.719Z,29.73
2018-10-18T12:18:52.197Z,28.20
2018-10-18T12:21:20.591Z,25.07
2018-10-18T12:23:49.027Z,25.97
2018-10-18T12:26:17.702Z,26.17
2018-10-18T12:28:46.174Z,24.07
2018-10-18T12:31:14.958Z,24.13
2018-10-18T12:33:43.445Z,23.17
2018-10-18T12:36:11.844Z,22.27
2018-10-18T12:38:40.335Z,21.70
2018-10-18T12:41:08.874Z,20.93
2018-10-18T12:43:37.318Z,24.07
2018-10-18T12:46:06.060Z,22.00
2018-10-18T12:48:34.666Z,20.80
2018-10-18T12:51:03.091Z,22.20
2018-10-18T12:53:31.762Z,22.47
2018-10-18T12:56:00.283Z,21.53
2018-10-18T12:58:28.751Z,21.73
2018-10-18T13:00:57.232Z,19.87
2018-10-18T13:03:25.632Z,20.07
2018-10-18T13:05:54.080Z,20.30
2018-10-18T13:08:22.533Z,20.20
2018-10-18T13:10:50.959Z,20.67
2018-10-18T13:13:19.353Z,19.13
2018-10-18T13:15:47.761Z,20.80
2018-10-18T13:18:16.230Z,20.63
2018-10-18T13:20:44.723Z,19.00
2018-10-18T13:23:13.156Z,21.67
2018-10-18T13:25:41.444Z,20.00
2018-10-18T13:28:09.783Z,20.57
2018-10-18T13:30:38.143Z,21.70
2018-10-18T13:33:06.627Z,21.80
2018-10-18T13:35:35.013Z,22.03
2018-10-18T13:38:03.666Z,21.03
2018-10-18T13:40:32.214Z,21.80
2018-10-18T13:43:00.730Z,23.53
2018-10-18T13:45:29.191Z,21.80
2018-10-18T13:47:57.697Z,20.53
2018-10-18T13:50:26.173Z,21.00
2018-10-18T13:52:54.726Z,19.87
2018-10-18T13:55:25.200Z,20.60
2018-10-18T13:57:53.645Z,19.13
2018-10-18T14:00:26.665Z,20.30
2018-10-18T14:02:55.564Z,19.97
2018-10-18T14:05:24.399Z,19.10
2018-10-18T14:07:53.751Z,17.23
2018-10-18T14:10:22.223Z,17.00
2018-10-18T14:12:51.241Z,14.80
2018-10-18T14:15:19.666Z,14.50
2018-10-18T14:17:48.178Z,13.97
2018-10-18T14:20:16.619Z,13.77
2018-10-18T14:22:44.965Z,13.13
2018-10-18T14:25:13.492Z,13.60
2018-10-18T14:27:50.012Z,12.23
2018-10-18T14:30:18.714Z,12.70
2018-10-18T14:32:47.205Z,12.50
2018-10-18T14:35:36.763Z,12.60
2018-10-18T14:38:05.240Z,11.97
2018-10-18T14:40:33.617Z,10.67
2018-10-18T14:43:02.147Z,10.30
2018-10-18T14:45:30.521Z,10.70
2018-10-18T14:47:58.962Z,11.03
2018-10-18T14:50:27.418Z,11.93
2018-10-18T14:52:55.716Z,12.73
2018-10-18T14:55:24.123Z,12.77
2018-10-18T14:57:52.573Z,11.57
2018-10-18T15:00:20.995Z,13.13
2018-10-18T15:02:49.381Z,13.10
2018-10-18T15:05:17.921Z,12.87
2018-10-18T15:07:47.207Z,11.47
2018-10-18T15:10:15.577Z,12.73
2018-10-18T15:12:44.126Z,11.80
2018-10-18T15:15:13.721Z,12.13
2018-10-18T15:17:42.480Z,12.20
2018-10-18T15:20:11.812Z,13.00
2018-10-18T15:22:41.039Z,12.03
2018-10-18T15:25:10.388Z,13.10
2018-10-18T15:27:39.117Z,13.00
2018-10-18T15:30:08.387Z,13.70
2018-10-18T15:32:37.378Z,12.37
2018-10-18T15:35:06.421Z,12.70
2018-10-18T15:37:34.809Z,12.67
2018-10-18T15:40:03.388Z,12.83
2018-10-18T15:42:31.904Z,11.77
2018-10-18T15:45:00.452Z,11.30
2018-10-18T15:47:28.861Z,10.60
2018-10-18T15:49:57.419Z,10.03
2018-10-18T15:52:25.896Z,11.63
2018-10-18T15:54:54.314Z,11.80
2018-10-18T15:57:22.775Z,11.87
2018-10-18T15:59:51.171Z,12.90
2018-10-18T16:02:19.623Z,12.80
2018-10-18T16:04:48.076Z,12.57
2018-10-18T16:07:16.511Z,12.43
2018-10-18T16:09:44.982Z,13.27
2018-10-18T16:12:13.503Z,12.13
2018-10-18T16:14:41.983Z,12.23
2018-10-18T16:17:12.463Z,12.40
2018-10-18T16:19:40.927Z,13.03
2018-10-18T16:22:09.483Z,13.30
2018-10-18T16:24:38.007Z,12.07
2018-10-18T16:27:06.503Z,12.20
2018-10-18T16:29:35.027Z,12.50
2018-10-18T16:32:03.612Z,11.70
2018-10-18T16:34:32.124Z,13.03
2018-10-18T16:37:00.532Z,13.27
2018-10-18T16:39:28.975Z,13.60
2018-10-18T16:41:57.390Z,12.80
2018-10-18T16:44:25.836Z,13.13
2018-10-18T16:46:54.302Z,15.07
2018-10-18T16:49:22.807Z,17.77
2018-10-18T16:51:51.702Z,14.30
2018-10-18T16:54:20.171Z,13.60
2018-10-18T16:56:48.600Z,13.67
2018-10-18T16:59:17.114Z,13.40
2018-10-18T17:01:45.547Z,12.90
2018-10-18T17:04:14.052Z,13.07
2018-10-18T17:06:42.375Z,14.50
2018-10-18T17:09:11.435Z,13.93
2018-10-18T17:11:39.936Z,14.20
2018-10-18T17:14:08.575Z,16.30
2018-10-18T17:16:36.934Z,15.13
2018-10-18T17:19:05.861Z,14.40
2018-10-18T17:21:34.327Z,14.10
2018-10-18T17:24:02.882Z,14.00
2018-10-18T17:26:31.455Z,14.80
2018-10-18T17:28:59.900Z,16.67
2018-10-18T17:31:28.483Z,17.37
2018-10-18T17:33:57.114Z,16.97
2018-10-18T17:36:25.921Z,15.17
2018-10-18T17:38:54.410Z,14.53
2018-10-18T17:41:22.856Z,15.40
2018-10-18T17:43:51.283Z,15.40
2018-10-18T17:46:19.810Z,16.20
2018-10-18T17:48:48.075Z,16.67
2018-10-18T17:51:16.431Z,17.47
2018-10-18T17:53:44.967Z,18.27
2018-10-18T17:56:13.493Z,16.13
2018-10-18T17:58:41.884Z,15.93
2018-10-18T18:01:10.363Z,16.87
2018-10-18T18:03:38.725Z,15.73
2018-10-18T18:06:07.287Z,16.90
2018-10-18T18:08:35.551Z,15.83
2018-10-18T18:11:03.995Z,17.17
2018-10-18T18:13:32.517Z,18.90
2018-10-18T18:16:00.931Z,16.80
2018-10-18T18:18:29.269Z,19.20
2018-10-18T18:20:57.671Z,17.37
2018-10-18T18:23:26.106Z,18.13
2018-10-18T18:25:54.606Z,18.40
2018-10-18T18:28:22.980Z,18.07
2018-10-18T18:30:51.310Z,17.50
2018-10-18T18:33:19.791Z,18.67
2018-10-18T18:35:48.143Z,17.13
2018-10-18T18:38:16.495Z,18.07
2018-10-18T18:40:44.808Z,17.90
2018-10-18T18:43:13.090Z,17.23
2018-10-18T18:45:42.651Z,18.70
2018-10-18T18:48:10.956Z,17.80
2018-10-18T18:50:39.238Z,20.17
2018-10-18T18:53:07.802Z,18.10
2018-10-18T18:55:40.693Z,19.43
2018-10-18T18:58:09.019Z,19.27
2018-10-18T19:00:37.364Z,18.30
2018-10-18T19:03:06.267Z,20.50
2018-10-18T19:05:34.541Z,18.33
2018-10-18T19:08:02.880Z,19.47
2018-10-18T19:10:31.182Z,20.17
2018-10-18T19:13:00.029Z,19.83
2018-10-18T19:15:28.499Z,20.07
2018-10-18T19:17:56.914Z,19.23
2018-10-18T19:20:25.299Z,19.67
2018-10-18T19:22:53.706Z,20.70
2018-10-18T19:25:22.117Z,19.70
2018-10-18T19:27:50.512Z,20.67
2018-10-18T19:30:18.880Z,22.20
2018-10-18T19:32:47.319Z,21.83
2018-10-18T19:35:15.787Z,21.10
2018-10-18T19:37:44.182Z,20.90
2018-10-18T19:40:12.644Z,21.13
2018-10-18T19:42:41.079Z,22.00
2018-10-18T19:45:09.939Z,21.77
2018-10-18T19:47:38.619Z,21.53
2018-10-18T19:50:07.690Z,21.57
2018-10-18T19:52:36.339Z,21.90
2018-10-18T19:55:04.660Z,21.10
2018-10-18T19:57:33.096Z,21.57
2018-10-18T20:00:01.598Z,21.00
2018-10-18T20:02:30.077Z,21.60
2018-10-18T20:04:58.495Z,22.20
2018-10-18T20:07:26.958Z,20.77
2018-10-18T20:09:55.324Z,23.70
2018-10-18T20:12:23.747Z,21.73
2018-10-18T20:14:52.178Z,22.10
2018-10-18T20:17:20.558Z,21.30
2018-10-18T20:19:48.974Z,20.67
2018-10-18T20:22:17.371Z,21.10
2018-10-18T20:24:45.832Z,21.73
2018-10-18T20:27:14.190Z,21.67
2018-10-18T20:29:42.595Z,23.67
2018-10-18T20:32:11.098Z,23.30
2018-10-18T20:34:39.542Z,21.30
2018-10-18T20:37:07.959Z,22.00
2018-10-18T20:39:36.419Z,20.43
2018-10-18T20:42:05.002Z,21.23
2018-10-18T20:44:33.543Z,20.60
2018-10-18T20:47:02.632Z,21.07
2018-10-18T20:49:31.705Z,19.17
2018-10-18T20:52:03.007Z,19.50
2018-10-18T20:54:32.472Z,12.60
2018-10-18T20:57:04.405Z,12.30
2018-10-18T20:59:32.911Z,10.57
2018-10-18T21:02:01.435Z,9.17
2018-10-18T21:04:30.136Z,8.00
2018-10-18T21:06:58.584Z,8.83
2018-10-18T21:09:27.109Z,8.27
2018-10-18T21:11:56.608Z,6.03
2018-10-18T21:14:24.979Z,7.47
2018-10-18T21:16:53.425Z,7.20
2018-10-18T21:19:21.886Z,7.13
2018-10-18T21:21:50.302Z,7.73
2018-10-18T21:24:18.733Z,7.50
2018-10-18T21:26:47.191Z,7.33
2018-10-18T21:29:15.664Z,6.80
2018-10-18T21:31:44.167Z,6.27
2018-10-18T21:34:12.650Z,7.10
2018-10-18T21:36:41.112Z,7.07
2018-10-18T21:39:09.748Z,7.33
2018-10-18T21:41:38.415Z,6.13
2018-10-18T21:44:06.839Z,6.87
2018-10-18T21:46:35.288Z,7.07
2018-10-18T21:49:03.942Z,7.10
2018-10-18T21:51:32.377Z,7.47
2018-10-18T21:54:00.984Z,7.40
2018-10-18T21:56:29.639Z,8.50
2018-10-18T21:58:58.445Z,7.60
2018-10-18T22:01:26.956Z,8.17
2018-10-18T22:03:55.551Z,7.80
2018-10-18T22:06:24.371Z,7.53
2018-10-18T22:08:53.948Z,8.13
2018-10-18T22:11:22.466Z,9.00
2018-10-18T22:13:51.049Z,10.60
2018-10-18T22:16:19.548Z,11.93
2018-10-18T22:18:47.951Z,11.40
2018-10-18T22:21:16.584Z,11.80
2018-10-18T22:23:44.856Z,13.47
2018-10-18T22:26:13.247Z,15.70
2018-10-18T22:28:41.670Z,15.80
2018-10-18T22:31:10.087Z,15.27
2018-10-18T22:33:38.693Z,16.30
2018-10-18T22:36:07.119Z,15.27
2018-10-18T22:38:35.495Z,16.43
2018-10-18T22:41:03.933Z,17.60
2018-10-18T22:43:32.255Z,17.10
2018-10-18T22:46:00.874Z,15.80
2018-10-18T22:48:30.592Z,15.00
2018-10-18T22:51:00.349Z,16.40
2018-10-18T22:53:30.054Z,15.37
2018-10-18T22:55:58.448Z,15.00
2018-10-18T22:58:26.810Z,15.30
2018-10-18T23:00:55.244Z,16.70
2018-10-18T23:03:23.609Z,16.70
2018-10-18T23:05:51.959Z,16.47
2018-10-18T23:08:20.356Z,15.47
2018-10-18T23:10:48.684Z,16.80
2018-10-18T23:13:17.026Z,16.60
2018-10-18T23:15:45.386Z,17.30
2018-10-18T23:18:13.749Z,17.20
2018-10-18T23:20:42.166Z,17.53
2018-10-18T23:23:11.209Z,16.73
2018-10-18T23:25:39.898Z,17.67
2018-10-18T23:28:08.251Z,19.10
2018-10-18T23:30:36.710Z,17.57
2018-10-18T23:33:05.201Z,17.07
2018-10-18T23:35:33.556Z,17.87
2018-10-18T23:38:01.927Z,18.50
2018-10-18T23:40:30.341Z,17.80
2018-10-18T23:42:58.805Z,17.80
2018-10-18T23:45:27.167Z,17.23
2018-10-18T23:47:55.567Z,18.70
2018-10-18T23:50:23.987Z,19.40
2018-10-18T23:52:52.398Z,20.60
2018-10-18T23:55:20.778Z,19.80
2018-10-18T23:57:49.187Z,19.53
